createdAt,value
2023-04-20T00:00:31.220Z,4.40
2023-04-20T00:02:59.655Z,4.22
2023-04-20T00:05:27.511Z,4.43
2023-04-20T00:07:55.034Z,5.38
2023-04-20T00:10:22.764Z,5.00
2023-04-20T00:12:50.417Z,5.95
2023-04-20T00:15:18.146Z,4.80
2023-04-20T00:17:46.714Z,4.90
2023-04-20T00:20:15.445Z,4.68
2023-04-20T00:22:43.162Z,4.13
2023-04-20T00:25:10.860Z,4.00
2023-04-20T00:27:38.580Z,4.22
2023-04-20T00:30:07.863Z,5.00
2023-04-20T00:32:35.503Z,4.53
2023-04-20T00:35:03.130Z,3.85
2023-04-20T00:37:31.115Z,4.43
2023-04-20T00:39:58.610Z,3.50
2023-04-20T00:42:26.234Z,4.28
2023-04-20T00:44:53.863Z,4.68
2023-04-20T00:47:22.983Z,4.30
2023-04-20T00:49:52.013Z,4.45
2023-04-20T00:52:21.281Z,4.45
2023-04-20T00:54:49.163Z,4.22
2023-04-20T00:57:19.373Z,3.85
2023-04-20T00:59:46.906Z,4.28
2023-04-20T01:02:15.062Z,4.70
2023-04-20T01:04:42.558Z,4.80
2023-04-20T01:07:10.362Z,4.40
2023-04-20T01:09:39.576Z,4.45
2023-04-20T01:12:11.754Z,4.05
2023-04-20T01:14:39.636Z,4.43
2023-04-20T01:17:07.179Z,5.53
2023-04-20T01:19:34.758Z,4.68
2023-04-20T01:22:03.405Z,4.63
2023-04-20T01:24:31.101Z,5.20
2023-04-20T01:27:01.685Z,4.28
2023-04-20T01:29:29.917Z,4.25
2023-04-20T01:31:57.963Z,3.92
2023-04-20T01:34:26.028Z,4.05
2023-04-20T01:36:54.696Z,5.07
2023-04-20T01:39:22.395Z,4.10
2023-04-20T01:41:50.218Z,5.30
2023-04-20T01:44:18.712Z,4.38
2023-04-20T01:46:46.429Z,4.43
2023-04-20T01:49:14.126Z,4.15
2023-04-20T01:51:41.630Z,5.07
2023-04-20T01:54:09.216Z,5.65
2023-04-20T01:56:36.721Z,5.38
2023-04-20T01:59:04.907Z,5.35
2023-04-20T02:01:33.623Z,5.50
2023-04-20T02:04:01.618Z,4.68
2023-04-20T02:06:29.320Z,5.38
2023-04-20T02:08:56.981Z,5.43
2023-04-20T02:11:24.535Z,5.43
2023-04-20T02:13:52.220Z,5.00
2023-04-20T02:16:21.876Z,5.72
2023-04-20T02:18:49.665Z,5.30
2023-04-20T02:21:22.495Z,5.22
2023-04-20T02:23:50.496Z,4.68
2023-04-20T02:26:18.024Z,4.93
2023-04-20T02:28:45.594Z,5.07
2023-04-20T02:31:13.292Z,5.87
2023-04-20T02:33:41.169Z,5.05
2023-04-20T02:36:09.122Z,4.93
2023-04-20T02:38:38.129Z,4.63
2023-04-20T02:41:08.517Z,5.85
2023-04-20T02:43:36.481Z,5.93
2023-04-20T02:46:05.505Z,5.32
2023-04-20T02:48:33.054Z,6.22
2023-04-20T02:51:01.290Z,5.13
2023-04-20T02:53:34.010Z,4.70
2023-04-20T02:56:17.061Z,4.90
2023-04-20T02:58:52.244Z,4.40
2023-04-20T03:01:28.043Z,4.32
2023-04-20T03:04:05.340Z,4.28
2023-04-20T03:06:38.724Z,4.05
2023-04-20T03:09:09.630Z,4.60
2023-04-20T03:11:42.873Z,4.10
2023-04-20T03:14:15.418Z,4.18
2023-04-20T03:16:43.197Z,4.40
2023-04-20T03:19:12.476Z,3.97
2023-04-20T03:21:40.636Z,4.63
2023-04-20T03:24:08.406Z,4.03
2023-04-20T03:26:36.649Z,4.55
2023-04-20T03:29:17.426Z,4.45
2023-04-20T03:31:45.922Z,4.00
2023-04-20T03:34:13.722Z,4.88
2023-04-20T03:36:41.958Z,4.38
2023-04-20T03:39:09.873Z,4.05
2023-04-20T03:41:37.610Z,4.10
2023-04-20T03:44:05.365Z,4.20
2023-04-20T03:46:33.784Z,4.15
2023-04-20T03:49:01.420Z,4.35
2023-04-20T03:51:29.268Z,3.88
2023-04-20T03:53:58.808Z,3.95
2023-04-20T03:56:27.396Z,4.30
2023-04-20T03:58:55.992Z,4.70
2023-04-20T04:01:26.074Z,4.28
2023-04-20T04:03:53.860Z,4.63
2023-04-20T04:06:21.913Z,4.43
2023-04-20T04:08:49.706Z,5.03
2023-04-20T04:11:17.251Z,4.90
2023-04-20T04:13:45.087Z,5.30
2023-04-20T04:16:13.002Z,4.75
2023-04-20T04:18:44.574Z,5.38
2023-04-20T04:21:12.218Z,5.18
2023-04-20T04:23:42.962Z,4.72
2023-04-20T04:26:21.533Z,5.00
2023-04-20T04:28:49.543Z,5.05
2023-04-20T04:31:21.941Z,5.10
2023-04-20T04:33:50.269Z,5.53
2023-04-20T04:36:34.380Z,4.60
2023-04-20T04:39:02.274Z,5.38
2023-04-20T04:41:30.316Z,5.72
2023-04-20T04:44:09.604Z,5.18
2023-04-20T04:46:37.207Z,6.70
2023-04-20T04:49:05.883Z,5.28
2023-04-20T04:51:33.781Z,5.25
2023-04-20T04:54:01.385Z,6.30
2023-04-20T04:56:29.159Z,6.47
2023-04-20T04:58:56.849Z,6.22
2023-04-20T05:01:24.380Z,6.35
2023-04-20T05:03:52.103Z,6.43
2023-04-20T05:06:19.961Z,5.50
2023-04-20T05:08:49.852Z,5.80
2023-04-20T05:11:17.577Z,4.78
2023-04-20T05:13:45.280Z,5.20
2023-04-20T05:16:12.892Z,6.25
2023-04-20T05:18:40.465Z,5.93
2023-04-20T05:21:08.078Z,4.80
2023-04-20T05:23:36.118Z,4.75
2023-04-20T05:26:03.646Z,7.00
2023-04-20T05:28:31.205Z,5.63
2023-04-20T05:30:58.885Z,4.72
2023-04-20T05:33:26.453Z,4.63
2023-04-20T05:35:57.951Z,6.38
2023-04-20T05:38:26.149Z,6.03
2023-04-20T05:40:53.620Z,4.95
2023-04-20T05:43:21.197Z,5.57
2023-04-20T05:45:49.235Z,5.63
2023-04-20T05:48:16.824Z,5.30
2023-04-20T05:50:44.342Z,4.93
2023-04-20T05:53:11.908Z,5.20
2023-04-20T05:55:39.461Z,4.70
2023-04-20T05:58:07.097Z,4.80
2023-04-20T06:00:34.709Z,5.03
2023-04-20T06:03:03.324Z,6.30
2023-04-20T06:05:31.438Z,4.93
2023-04-20T06:07:59.320Z,5.53
2023-04-20T06:10:32.331Z,4.30
2023-04-20T06:12:59.931Z,5.05
2023-04-20T06:15:27.740Z,4.78
2023-04-20T06:17:55.523Z,5.30
2023-04-20T06:20:23.389Z,5.10
2023-04-20T06:22:51.217Z,5.13
2023-04-20T06:25:18.858Z,5.22
2023-04-20T06:27:46.812Z,4.30
2023-04-20T06:30:15.060Z,3.90
2023-04-20T06:32:42.619Z,3.95
2023-04-20T06:35:10.765Z,4.00
2023-04-20T06:37:38.871Z,4.03
2023-04-20T06:40:10.908Z,4.00
2023-04-20T06:42:38.890Z,4.22
2023-04-20T06:45:07.548Z,4.13
2023-04-20T06:47:36.264Z,4.00
2023-04-20T06:50:09.937Z,4.07
2023-04-20T06:52:39.296Z,4.57
2023-04-20T06:55:07.958Z,4.25
2023-04-20T06:57:37.360Z,4.03
2023-04-20T07:00:08.692Z,3.83
2023-04-20T07:02:48.989Z,3.85
2023-04-20T07:05:18.186Z,3.45
2023-04-20T07:07:46.260Z,4.10
2023-04-20T07:10:15.526Z,4.40
2023-04-20T07:12:44.258Z,3.90
2023-04-20T07:15:12.480Z,3.33
2023-04-20T07:17:40.972Z,3.60
2023-04-20T07:20:09.457Z,3.53
2023-04-20T07:22:38.653Z,3.60
2023-04-20T07:25:11.475Z,3.67
2023-04-20T07:27:41.125Z,3.90
2023-04-20T07:30:10.862Z,3.70
2023-04-20T07:32:39.853Z,3.50
2023-04-20T07:35:08.179Z,3.60
2023-04-20T07:37:36.086Z,3.33
2023-04-20T07:40:07.426Z,3.40
2023-04-20T07:42:37.300Z,3.08
2023-04-20T07:45:06.577Z,3.70
2023-04-20T07:47:35.378Z,3.95
2023-04-20T07:50:05.128Z,3.25
2023-04-20T07:52:34.649Z,2.83
2023-04-20T07:55:03.106Z,3.10
2023-04-20T07:57:35.664Z,3.08
2023-04-20T08:00:07.392Z,3.00
2023-04-20T08:02:41.199Z,2.85
2023-04-20T08:05:10.571Z,2.92
2023-04-20T08:07:38.996Z,2.78
2023-04-20T08:10:07.796Z,3.17
2023-04-20T08:12:36.611Z,2.50
2023-04-20T08:15:06.601Z,2.60
2023-04-20T08:17:34.800Z,2.72
2023-04-20T08:20:03.632Z,2.60
2023-04-20T08:22:34.619Z,2.72
2023-04-20T08:25:02.566Z,2.70
2023-04-20T08:27:35.055Z,2.97
2023-04-20T08:30:04.659Z,2.92
2023-04-20T08:32:39.212Z,3.03
2023-04-20T08:35:08.791Z,2.95
2023-04-20T08:37:37.730Z,2.75
2023-04-20T08:40:07.033Z,2.63
2023-04-20T08:42:36.181Z,3.15
2023-04-20T08:45:04.098Z,2.83
2023-04-20T08:47:37.012Z,2.72
2023-04-20T08:50:05.718Z,3.15
2023-04-20T08:52:35.763Z,2.88
2023-04-20T08:55:04.234Z,2.78
2023-04-20T08:57:33.735Z,2.80
2023-04-20T09:00:05.725Z,3.20
2023-04-20T09:02:36.580Z,2.63
2023-04-20T09:05:05.445Z,2.55
2023-04-20T09:07:34.089Z,3.10
2023-04-20T09:10:02.199Z,2.67
2023-04-20T09:12:43.331Z,2.92
2023-04-20T09:15:11.708Z,3.00
2023-04-20T09:17:41.398Z,2.80
2023-04-20T09:20:11.468Z,3.03
2023-04-20T09:22:39.358Z,2.50
2023-04-20T09:25:17.295Z,2.38
2023-04-20T09:28:01.539Z,3.15
2023-04-20T09:30:49.411Z,2.60
2023-04-20T09:33:17.294Z,2.97
2023-04-20T09:35:45.774Z,2.80
2023-04-20T09:38:16.825Z,3.03
2023-04-20T09:40:44.624Z,2.70
2023-04-20T09:43:25.281Z,2.78
2023-04-20T09:45:52.876Z,2.97
2023-04-20T09:48:21.849Z,2.60
2023-04-20T09:50:51.506Z,2.33
2023-04-20T09:53:20.234Z,2.70
2023-04-20T09:55:50.546Z,2.97
2023-04-20T09:58:20.400Z,2.45
2023-04-20T10:00:48.195Z,2.80
2023-04-20T10:03:20.217Z,3.17
2023-04-20T10:05:49.090Z,6.13
2023-04-20T10:08:59.249Z,3.97
2023-04-20T10:11:34.069Z,3.28
2023-04-20T10:14:18.917Z,3.78
2023-04-20T10:16:58.684Z,4.28
2023-04-20T10:19:37.712Z,3.72
2023-04-20T10:22:06.113Z,3.30
2023-04-20T10:24:34.255Z,2.92
2023-04-20T10:27:04.112Z,5.10
2023-04-20T10:29:31.971Z,2.88
2023-04-20T10:32:00.130Z,2.70
2023-04-20T10:34:34.799Z,2.70
2023-04-20T10:37:09.940Z,2.70
2023-04-20T10:39:45.073Z,3.85
2023-04-20T10:42:13.001Z,3.05
2023-04-20T10:44:54.330Z,4.13
2023-04-20T10:47:30.186Z,4.20
2023-04-20T10:50:17.110Z,3.15
2023-04-20T10:52:45.041Z,2.83
2023-04-20T10:55:24.573Z,2.90
2023-04-20T10:57:52.886Z,2.90
2023-04-20T11:00:26.342Z,3.00
2023-04-20T11:02:57.881Z,2.40
2023-04-20T11:05:27.990Z,2.42
2023-04-20T11:07:59.195Z,2.58
2023-04-20T11:10:41.414Z,2.70
2023-04-20T11:13:30.888Z,2.90
2023-04-20T11:15:59.374Z,2.50
2023-04-20T11:18:27.730Z,3.72
2023-04-20T11:20:56.340Z,2.75
2023-04-20T11:23:27.503Z,2.58
2023-04-20T11:25:56.983Z,3.58
2023-04-20T11:28:26.059Z,2.70
2023-04-20T11:30:54.491Z,2.85
2023-04-20T11:33:31.902Z,2.80
2023-04-20T11:36:01.970Z,2.47
2023-04-20T11:38:38.585Z,2.90
2023-04-20T11:43:36.231Z,3.95
2023-04-20T11:46:04.025Z,3.90
2023-04-20T11:48:31.985Z,4.40
2023-04-20T11:50:59.458Z,3.97
2023-04-20T11:53:26.950Z,3.95
2023-04-20T11:55:54.498Z,3.83
2023-04-20T11:58:22.616Z,3.38
2023-04-20T12:00:51.243Z,3.30
2023-04-20T12:03:19.142Z,2.97
2023-04-20T12:05:46.973Z,3.20
2023-04-20T12:08:14.666Z,3.38
2023-04-20T12:10:42.288Z,3.13
2023-04-20T12:13:09.969Z,3.10
2023-04-20T12:15:37.857Z,3.75
2023-04-20T12:18:05.672Z,3.13
2023-04-20T12:20:33.356Z,3.05
2023-04-20T12:23:02.447Z,3.22
2023-04-20T12:25:30.039Z,2.90
2023-04-20T12:27:57.605Z,3.00
2023-04-20T12:30:25.344Z,3.78
2023-04-20T12:32:53.022Z,3.20
2023-04-20T12:35:21.183Z,3.00
2023-04-20T12:37:48.824Z,4.22
2023-04-20T12:40:16.307Z,3.40
2023-04-20T12:42:44.143Z,4.72
2023-04-20T12:45:11.875Z,3.38
2023-04-20T12:47:39.450Z,3.45
2023-04-20T12:50:07.738Z,3.60
2023-04-20T12:52:35.513Z,3.50
2023-04-20T12:55:03.605Z,3.20
2023-04-20T12:57:32.442Z,3.30
2023-04-20T13:00:02.895Z,3.05
2023-04-20T13:02:34.712Z,3.45
2023-04-20T13:05:02.509Z,5.95
2023-04-20T13:07:31.928Z,3.25
2023-04-20T13:10:02.125Z,5.93
2023-04-20T13:12:32.468Z,3.20
2023-04-20T13:14:59.967Z,4.45
2023-04-20T13:17:27.675Z,4.20
2023-04-20T13:19:55.141Z,3.15
2023-04-20T13:22:22.918Z,3.25
2023-04-20T13:24:50.485Z,3.53
2023-04-20T13:27:18.135Z,2.88
2023-04-20T13:29:45.905Z,3.05
2023-04-20T13:32:13.786Z,3.10
2023-04-20T13:34:41.466Z,3.35
2023-04-20T13:37:09.001Z,3.20
2023-04-20T13:39:36.918Z,3.80
2023-04-20T13:42:04.388Z,3.20
2023-04-20T13:44:31.847Z,3.17
2023-04-20T13:46:59.577Z,3.13
2023-04-20T13:49:27.238Z,3.03
2023-04-20T13:51:55.488Z,3.00
2023-04-20T13:54:23.022Z,2.60
2023-04-20T13:56:51.422Z,3.08
2023-04-20T13:59:18.874Z,3.22
2023-04-20T14:01:46.526Z,3.25
2023-04-20T14:04:17.047Z,3.58
2023-04-20T14:06:45.026Z,4.05
2023-04-20T14:09:12.763Z,2.83
2023-04-20T14:11:41.108Z,3.45
2023-04-20T14:14:08.735Z,3.38
2023-04-20T14:16:46.889Z,3.47
2023-04-20T14:19:15.531Z,2.90
2023-04-20T14:21:46.775Z,3.55
2023-04-20T14:24:14.664Z,3.67
2023-04-20T14:26:42.465Z,3.20
2023-04-20T14:29:10.218Z,4.55
2023-04-20T14:31:38.568Z,3.70
2023-04-20T14:34:06.403Z,3.38
2023-04-20T14:36:34.389Z,4.80
2023-04-20T14:39:02.245Z,3.33
2023-04-20T14:41:31.174Z,4.15
2023-04-20T14:43:59.839Z,3.78
2023-04-20T14:46:28.018Z,3.65
2023-04-20T14:48:55.625Z,3.33
2023-04-20T14:51:23.274Z,2.92
2023-04-20T14:53:50.861Z,2.80
2023-04-20T14:56:18.479Z,2.65
2023-04-20T14:58:48.078Z,2.60
2023-04-20T15:01:16.005Z,2.90
2023-04-20T15:03:46.905Z,2.97
2023-04-20T15:06:14.868Z,3.03
2023-04-20T15:08:42.613Z,2.88
2023-04-20T15:11:10.527Z,3.03
2023-04-20T15:13:41.249Z,2.70
2023-04-20T15:16:09.259Z,2.53
2023-04-20T15:18:37.072Z,3.13
2023-04-20T15:21:05.267Z,3.00
2023-04-20T15:23:33.330Z,2.75
2023-04-20T15:26:00.980Z,2.92
2023-04-20T15:28:28.719Z,3.08
2023-04-20T15:30:56.786Z,3.15
2023-04-20T15:33:24.433Z,3.20
2023-04-20T15:35:52.003Z,2.90
2023-04-20T15:38:19.607Z,3.45
2023-04-20T15:40:47.192Z,3.03
2023-04-20T15:43:14.804Z,3.38
2023-04-20T15:45:44.641Z,3.20
2023-04-20T15:48:12.768Z,2.78
2023-04-20T15:50:40.402Z,2.63
2023-04-20T15:53:08.059Z,3.22
2023-04-20T15:55:39.619Z,3.50
2023-04-20T15:58:07.458Z,3.35
2023-04-20T16:00:35.056Z,2.92
2023-04-20T16:03:02.769Z,3.78
2023-04-20T16:05:30.945Z,3.17
2023-04-20T16:08:01.564Z,3.20
2023-04-20T16:10:32.011Z,2.83
2023-04-20T16:12:59.772Z,4.10
2023-04-20T16:15:27.533Z,3.47
2023-04-20T16:17:55.216Z,3.35
2023-04-20T16:20:22.879Z,3.65
2023-04-20T16:22:50.554Z,3.60
2023-04-20T16:25:23.174Z,2.95
2023-04-20T16:27:51.907Z,2.97
2023-04-20T16:30:19.935Z,3.50
2023-04-20T16:32:47.703Z,3.22
2023-04-20T16:35:15.538Z,3.08
2023-04-20T16:37:45.429Z,3.15
2023-04-20T16:40:12.983Z,3.60
2023-04-20T16:42:40.518Z,3.15
2023-04-20T16:45:08.519Z,2.95
2023-04-20T16:47:36.157Z,3.60
2023-04-20T16:50:07.212Z,2.80
2023-04-20T16:52:35.429Z,3.28
2023-04-20T16:55:03.457Z,4.00
2023-04-20T16:57:32.103Z,3.42
2023-04-20T16:59:59.738Z,2.92
2023-04-20T17:02:32.927Z,3.42
2023-04-20T17:05:01.042Z,3.30
2023-04-20T17:07:29.533Z,3.50
2023-04-20T17:09:57.529Z,2.92
2023-04-20T17:12:25.587Z,3.50
2023-04-20T17:14:53.228Z,3.53
2023-04-20T17:17:20.840Z,3.17
2023-04-20T17:19:48.338Z,3.90
2023-04-20T17:22:16.479Z,4.10
2023-04-20T17:24:44.178Z,4.00
2023-04-20T17:27:11.888Z,4.55
2023-04-20T17:29:39.609Z,4.85
2023-04-20T17:32:07.343Z,6.53
2023-04-20T17:34:36.001Z,4.45
2023-04-20T17:37:03.891Z,6.13
2023-04-20T17:39:31.456Z,4.00
2023-04-20T17:41:58.994Z,4.50
2023-04-20T17:44:26.568Z,3.90
2023-04-20T17:46:54.711Z,3.25
2023-04-20T17:49:22.471Z,4.10
2023-04-20T17:51:50.085Z,4.45
2023-04-20T17:54:18.595Z,3.63
2023-04-20T17:56:46.403Z,7.20
2023-04-20T17:59:14.107Z,4.95
2023-04-20T18:01:41.692Z,4.18
2023-04-20T18:04:10.200Z,4.57
2023-04-20T18:06:38.105Z,3.95
2023-04-20T18:09:05.778Z,5.13
2023-04-20T18:11:33.621Z,4.05
2023-04-20T18:14:01.221Z,5.13
2023-04-20T18:16:29.030Z,4.68
2023-04-20T18:18:56.706Z,4.97
2023-04-20T18:21:24.224Z,5.20
2023-04-20T18:23:52.098Z,5.55
2023-04-20T18:26:20.585Z,4.28
2023-04-20T18:28:48.366Z,5.72
2023-04-20T18:31:15.929Z,5.68
2023-04-20T18:33:43.548Z,5.75
2023-04-20T18:36:11.223Z,5.20
2023-04-20T18:38:38.796Z,10.70
2023-04-20T18:41:06.489Z,6.18
2023-04-20T18:43:34.101Z,10.57
2023-04-20T18:46:01.708Z,5.55
2023-04-20T18:48:29.354Z,6.15
2023-04-20T18:50:56.822Z,4.57
2023-04-20T18:53:24.657Z,5.82
2023-04-20T18:55:53.040Z,4.97
2023-04-20T18:58:20.718Z,4.70
2023-04-20T19:00:49.216Z,4.78
2023-04-20T19:03:17.249Z,4.25
2023-04-20T19:05:45.400Z,5.20
2023-04-20T19:08:12.896Z,4.05
2023-04-20T19:10:40.730Z,4.20
2023-04-20T19:13:08.456Z,4.90
2023-04-20T19:15:36.100Z,5.32
2023-04-20T19:18:03.878Z,7.35
2023-04-20T19:20:31.558Z,5.50
2023-04-20T19:22:59.156Z,5.80
2023-04-20T19:25:27.869Z,6.00
2023-04-20T19:27:56.232Z,5.68
2023-04-20T19:30:23.807Z,4.60
2023-04-20T19:32:51.353Z,5.07
2023-04-20T19:35:19.121Z,4.68
2023-04-20T19:37:47.219Z,6.00
2023-04-20T19:40:14.934Z,5.47
2023-04-20T19:42:42.777Z,5.28
2023-04-20T19:45:10.471Z,5.10
2023-04-20T19:47:38.301Z,5.30
2023-04-20T19:50:06.674Z,5.15
2023-04-20T19:52:35.216Z,5.50
2023-04-20T19:55:05.519Z,5.00
2023-04-20T19:57:33.324Z,5.65
2023-04-20T20:00:01.043Z,5.15
2023-04-20T20:02:31.484Z,5.57
2023-04-20T20:04:59.503Z,5.95
2023-04-20T20:07:28.131Z,5.95
2023-04-20T20:09:55.924Z,6.78
2023-04-20T20:12:23.448Z,6.43
2023-04-20T20:14:51.062Z,6.47
2023-04-20T20:17:19.570Z,7.25
2023-04-20T20:19:47.218Z,6.05
2023-04-20T20:22:14.860Z,5.78
2023-04-20T20:24:44.706Z,6.38
2023-04-20T20:27:12.250Z,6.60
2023-04-20T20:29:40.129Z,6.13
2023-04-20T20:32:07.879Z,6.00
2023-04-20T20:34:35.393Z,5.88
2023-04-20T20:37:04.559Z,6.53
2023-04-20T20:39:35.058Z,6.03
2023-04-20T20:42:04.120Z,6.57
2023-04-20T20:44:35.164Z,6.32
2023-04-20T20:47:03.195Z,5.38
2023-04-20T20:49:31.060Z,5.78
2023-04-20T20:51:58.692Z,5.30
2023-04-20T20:54:26.401Z,4.78
2023-04-20T20:56:54.103Z,4.93
2023-04-20T20:59:22.124Z,4.47
2023-04-20T21:01:51.353Z,4.68
2023-04-20T21:04:19.457Z,3.88
2023-04-20T21:06:47.445Z,4.40
2023-04-20T21:09:15.715Z,3.92
2023-04-20T21:11:43.437Z,4.20
2023-04-20T21:14:11.215Z,4.90
2023-04-20T21:16:39.557Z,4.47
2023-04-20T21:19:07.226Z,4.28
2023-04-20T21:21:35.104Z,3.50
2023-04-20T21:24:02.882Z,4.35
2023-04-20T21:26:35.769Z,4.13
2023-04-20T21:29:04.299Z,4.10
2023-04-20T21:31:32.846Z,3.65
2023-04-20T21:34:00.635Z,3.92
2023-04-20T21:36:28.546Z,4.47
2023-04-20T21:38:56.311Z,4.32
2023-04-20T21:41:27.649Z,3.20
2023-04-20T21:43:56.267Z,3.20
2023-04-20T21:46:23.924Z,2.75
2023-04-20T21:48:51.793Z,3.67
2023-04-20T21:51:19.747Z,3.03
2023-04-20T21:53:47.423Z,2.80
2023-04-20T21:56:15.598Z,3.28
2023-04-20T21:58:43.664Z,3.50
2023-04-20T22:01:11.258Z,2.60
2023-04-20T22:03:39.259Z,2.90
2023-04-20T22:06:07.336Z,3.03
2023-04-20T22:08:36.431Z,3.20
2023-04-20T22:11:03.949Z,3.25
2023-04-20T22:13:31.862Z,3.00
2023-04-20T22:15:59.516Z,2.75
2023-04-20T22:18:27.231Z,3.30
2023-04-20T22:20:54.815Z,3.13
2023-04-20T22:23:22.476Z,2.90
2023-04-20T22:25:50.087Z,2.65
2023-04-20T22:28:17.896Z,3.03
2023-04-20T22:30:45.547Z,2.90
2023-04-20T22:33:13.130Z,3.60
2023-04-20T22:35:40.741Z,3.22
2023-04-20T22:38:08.350Z,3.00
2023-04-20T22:40:36.062Z,3.42
2023-04-20T22:43:03.838Z,2.90
2023-04-20T22:45:31.474Z,4.88
2023-04-20T22:47:59.172Z,3.60
2023-04-20T22:50:26.794Z,3.95
2023-04-20T22:52:54.344Z,3.58
2023-04-20T22:55:21.965Z,3.30
2023-04-20T22:57:49.457Z,3.22
2023-04-20T23:00:17.420Z,3.58
2023-04-20T23:02:45.206Z,3.92
2023-04-20T23:05:12.904Z,3.20
2023-04-20T23:07:40.558Z,3.75
2023-04-20T23:10:09.038Z,3.90
2023-04-20T23:12:36.958Z,2.80
2023-04-20T23:15:06.102Z,3.83
2023-04-20T23:17:35.456Z,3.40
2023-04-20T23:20:03.688Z,3.60
2023-04-20T23:22:32.676Z,3.17
2023-04-20T23:25:00.429Z,3.53
2023-04-20T23:27:27.912Z,2.80
2023-04-20T23:29:55.476Z,2.90
2023-04-20T23:32:23.143Z,3.17
2023-04-20T23:34:51.139Z,2.75
2023-04-20T23:37:18.859Z,2.60
2023-04-20T23:39:46.480Z,3.35
2023-04-20T23:42:14.055Z,3.08
2023-04-20T23:44:41.696Z,3.38
2023-04-20T23:47:09.209Z,2.85
2023-04-20T23:49:38.290Z,2.60
2023-04-20T23:52:06.078Z,2.40
2023-04-20T23:54:34.083Z,2.90
2023-04-20T23:57:02.824Z,2.63
2023-04-20T23:59:30.702Z,3.30
